Time;durP1;ratioP1;P1;durP2;ratioP2;P2;SDS_P1;SDS_P2;PMS_P1;PMS_P2;Temp;Humidity;BMP_temperature;BMP_pressure;BME280_temperature;BME280_humidity;BME280_pressure;Samples;Min_cycle;Max_cycle;Signal;HPM_P1;HPM_P2
2022/05/03 00:01:42;;;;;;;2.50;1.70;;;11.20;53.80;;;;;;2326749;57;20289;-75
2022/05/03 00:04:12;;;;;;;2.55;1.50;;;11.20;53.80;;;;;;2319410;58;21087;-77
2022/05/03 00:06:48;;;;;;;2.90;2.00;;;11.20;54.20;;;;;;2326981;57;21101;-76
2022/05/03 00:09:22;;;;;;;2.85;1.70;;;11.00;54.10;;;;;;2593341;53;21129;-77
2022/05/03 00:11:56;;;;;;;2.97;1.60;;;11.00;54.30;;;;;;2346307;57;21125;-77
2022/05/03 00:14:25;;;;;;;;;;;11.00;54.40;;;;;;2349707;57;21096;-75
2022/05/03 00:16:54;;;;;;;4.90;2.55;;;11.10;54.30;;;;;;2346179;57;20123;-76
2022/05/03 00:19:22;;;;;;;3.30;2.00;;;11.00;54.10;;;;;;2345404;57;21175;-76
2022/05/03 00:21:50;;;;;;;2.60;1.67;;;10.90;54.30;;;;;;2593260;53;21086;-73
2022/05/03 00:24:18;;;;;;;3.10;1.60;;;10.90;54.60;;;;;;2592890;53;21062;-76
2022/05/03 00:26:46;;;;;;;2.87;2.08;;;10.80;54.60;;;;;;2345733;57;21053;-76
2022/05/03 00:29:14;;;;;;;4.00;2.08;;;10.80;54.70;;;;;;2593409;53;21061;-75
2022/05/03 00:31:42;;;;;;;2.75;2.10;;;10.80;54.70;;;;;;2346095;57;21168;-74
2022/05/03 00:34:10;;;;;;;2.75;2.00;;;10.80;54.80;;;;;;2345331;57;21042;-76
2022/05/03 00:36:38;;;;;;;3.15;1.98;;;10.80;55.00;;;;;;2592527;53;21469;-76
2022/05/03 00:39:05;;;;;;;2.92;1.90;;;10.70;55.10;;;;;;2345920;57;21062;-78
2022/05/03 00:41:40;;;;;;;3.42;1.90;;;10.70;55.20;;;;;;2593036;53;21085;-74
2022/05/03 00:47:10;;;;;;;4.72;1.98;;;10.70;55.70;;;;;;2345689;57;21088;-75
2022/05/03 00:49:52;;;;;;;4.18;1.95;;;10.70;55.70;;;;;;2593307;53;21049;-73
2022/05/03 00:52:28;;;;;;;2.60;2.10;;;10.60;55.90;;;;;;2345928;57;21041;-78
2022/05/03 00:55:18;;;;;;;3.60;2.22;;;10.60;55.70;;;;;;2346710;57;21138;-77
2022/05/03 00:57:55;;;;;;;4.30;2.30;;;10.60;55.80;;;;;;2345836;57;21120;-74
2022/05/03 01:00:27;;;;;;;2.53;2.03;;;10.60;55.80;;;;;;2345942;57;21053;-76
2022/05/03 01:03:11;;;;;;;4.32;1.80;;;10.50;55.90;;;;;;2345823;57;21120;-76
2022/05/03 01:05:50;;;;;;;3.47;2.40;;;10.50;56.20;;;;;;2592683;53;21066;-75
2022/05/03 01:08:33;;;;;;;3.17;1.95;;;10.50;56.20;;;;;;2345957;57;21058;-74
2022/05/03 01:11:15;;;;;;;3.08;2.10;;;10.40;56.20;;;;;;2592644;53;21551;-75
2022/05/03 01:13:51;;;;;;;3.97;2.12;;;10.40;56.30;;;;;;2345033;57;21125;-75
2022/05/03 01:16:30;;;;;;;2.15;1.70;;;10.40;56.40;;;;;;2344299;57;21067;-76
2022/05/03 01:19:12;;;;;;;4.90;2.20;;;10.40;56.50;;;;;;2345090;57;21667;-76
2022/05/03 01:21:58;;;;;;;2.65;1.98;;;10.40;56.70;;;;;;2345045;57;21050;-76
2022/05/03 01:24:37;;;;;;;3.35;2.37;;;10.30;56.80;;;;;;2345037;57;21101;-76
2022/05/03 01:27:51;;;;;;;2.78;1.98;;;10.30;56.90;;;;;;2343885;57;21053;-76
2022/05/03 01:30:19;;;;;;;3.22;2.20;;;10.30;57.10;;;;;;2553888;53;21045;-78
2022/05/03 01:32:47;;;;;;;3.75;2.17;;;10.30;57.10;;;;;;2345171;57;21113;-76
2022/05/03 01:35:15;;;;;;;4.10;2.42;;;10.20;57.30;;;;;;2344776;57;21716;-77
2022/05/03 01:38:04;;;;;;;3.95;2.60;;;10.20;57.30;;;;;;2344750;57;21541;-76
2022/05/03 01:40:59;;;;;;;5.18;2.78;;;10.20;57.40;;;;;;2345232;57;21112;-76
2022/05/03 01:43:41;;;;;;;3.00;2.20;;;10.20;57.40;;;;;;2344414;57;21101;-75
2022/05/03 01:46:15;;;;;;;3.28;1.98;;;10.20;57.50;;;;;;2344314;57;21125;-75
2022/05/03 01:51:49;;;;;;;3.83;2.58;;;10.20;57.60;;;;;;2344691;57;21594;-77
2022/05/03 01:54:32;;;;;;;3.80;2.67;;;10.20;57.60;;;;;;2345353;57;21105;-76
2022/05/03 01:57:10;;;;;;;3.95;2.90;;;10.20;57.70;;;;;;2345047;57;21132;-75
2022/05/03 01:59:49;;;;;;;4.90;2.65;;;10.20;57.70;;;;;;2592262;53;21126;-75
2022/05/03 02:02:27;;;;;;;3.60;2.70;;;10.10;57.80;;;;;;2345139;57;21049;-76
2022/05/03 02:05:07;;;;;;;5.53;2.83;;;10.10;58.00;;;;;;2592006;53;21113;-75
2022/05/03 02:07:50;;;;;;;4.00;2.12;;;10.10;58.00;;;;;;2343825;57;21597;-75
2022/05/03 02:10:30;;;;;;;4.75;2.85;;;10.10;58.30;;;;;;2346076;57;21054;-78
2022/05/03 02:13:05;;;;;;;4.28;3.08;;;10.10;58.40;;;;;;2345867;57;21109;-78
2022/05/03 02:15:40;;;;;;;4.07;2.67;;;10.10;58.30;;;;;;2345709;57;21069;-78
2022/05/03 02:18:21;;;;;;;5.90;3.05;;;10.10;58.50;;;;;;2345789;57;21037;-77
2022/05/03 02:24:01;;;;;;;4.47;3.28;;;10.10;58.80;;;;;;2355689;57;22074;-78
2022/05/03 02:26:38;;;;;;;5.82;3.30;;;10.10;58.70;;;;;;2353862;56;21034;-75
2022/05/03 02:29:10;;;;;;;8.40;3.97;;;10.10;59.00;;;;;;2374889;56;21113;-76
2022/05/03 02:31:44;;;;;;;6.12;4.47;;;10.10;59.00;;;;;;2629124;52;21047;-76
2022/05/03 02:34:28;;;;;;;7.15;4.65;;;10.00;59.30;;;;;;2375345;56;21046;-76
2022/05/03 02:37:00;;;;;;;8.27;5.03;;;10.00;59.90;;;;;;2374508;56;21046;-75
2022/05/03 02:39:31;;;;;;;9.25;5.68;;;10.10;59.90;;;;;;2374753;56;21051;-75
2022/05/03 02:42:01;;;;;;;9.25;5.65;;;10.00;59.20;;;;;;2374915;56;21043;-76
2022/05/03 02:44:31;;;;;;;9.05;5.10;;;10.00;59.40;;;;;;2375450;56;21114;-76
2022/05/03 02:47:05;;;;;;;9.32;5.75;;;10.00;59.70;;;;;;2374551;56;21131;-75
2022/05/03 02:50:04;;;;;;;11.27;5.97;;;10.00;59.90;;;;;;2375132;56;21110;-75
2022/05/03 02:52:41;;;;;;;8.52;5.72;;;10.00;60.00;;;;;;2628514;52;21024;-76
2022/05/03 02:55:19;;;;;;;11.48;6.87;;;10.00;60.20;;;;;;2374298;56;21051;-76
2022/05/03 02:57:54;;;;;;;12.93;7.62;;;10.00;60.20;;;;;;2374869;56;21066;-77
2022/05/03 03:03:31;;;;;;;10.23;6.68;;;10.00;60.70;;;;;;2375151;56;21062;-77
2022/05/03 03:06:00;;;;;;;11.12;6.53;;;10.00;60.80;;;;;;2374884;56;21081;-77
2022/05/03 03:08:44;;;;;;;10.95;6.37;;;10.00;60.90;;;;;;2629541;52;21114;-78
2022/05/03 03:11:21;;;;;;;9.40;6.15;;;10.00;61.30;;;;;;2376076;56;21209;-76
2022/05/03 03:14:06;;;;;;;9.68;6.50;;;10.00;61.50;;;;;;2375762;56;21043;-77
2022/05/03 03:16:35;;;;;;;9.73;6.03;;;10.00;61.50;;;;;;2628481;52;21044;-77
2022/05/03 03:19:14;;;;;;;10.80;6.37;;;10.00;61.60;;;;;;2373377;56;21034;-74
2022/05/03 03:21:48;;;;;;;13.65;7.65;;;10.00;61.80;;;;;;2375178;56;21117;-76
2022/05/03 03:24:18;;;;;;;9.07;6.15;;;10.00;61.90;;;;;;2628104;52;21054;-76
2022/05/03 03:26:48;;;;;;;10.05;6.78;;;10.00;62.20;;;;;;2374795;56;21130;-76
2022/05/03 03:29:15;;;;;;;11.68;7.07;;;10.00;62.20;;;;;;2375127;56;21039;-77
2022/05/03 03:31:43;;;;;;;9.98;6.95;;;10.00;62.20;;;;;;2375068;56;21126;-75
2022/05/03 03:34:12;;;;;;;11.70;7.15;;;10.00;62.20;;;;;;2374635;56;21118;-75
2022/05/03 03:36:42;;;;;;;11.05;6.70;;;10.00;62.00;;;;;;2627208;52;21106;-75
2022/05/03 03:39:09;;;;;;;10.32;6.80;;;10.00;62.00;;;;;;2626099;52;21027;-76
2022/05/03 03:41:36;;;;;;;14.05;7.78;;;10.00;62.00;;;;;;2374332;56;21119;-76
2022/05/03 03:44:05;;;;;;;11.30;7.30;;;10.00;62.00;;;;;;2627560;52;21101;-75
2022/05/03 03:46:33;;;;;;;14.65;7.35;;;10.00;62.40;;;;;;2374018;56;21019;-77
2022/05/03 03:49:01;;;;;;;9.80;6.75;;;10.00;62.10;;;;;;2374361;56;21119;-76
2022/05/03 03:51:29;;;;;;;9.27;6.47;;;10.00;62.30;;;;;;2374208;56;21034;-74
2022/05/03 03:53:57;;;;;;;7.95;5.80;;;10.00;62.40;;;;;;2627987;52;21153;-75
2022/05/03 03:56:26;;;;;;;12.50;7.87;;;10.00;62.40;;;;;;2372372;56;21101;-76
2022/05/03 03:58:54;;;;;;;11.07;6.43;;;10.00;62.40;;;;;;2374207;56;21046;-75
2022/05/03 04:01:21;;;;;;;10.23;5.93;;;10.00;62.40;;;;;;2627543;52;21042;-75
2022/05/03 04:03:49;;;;;;;15.07;7.97;;;10.00;62.40;;;;;;2627157;52;21549;-76
2022/05/03 04:06:16;;;;;;;15.85;8.55;;;10.10;62.50;;;;;;2626403;52;21040;-75
2022/05/03 04:08:44;;;;;;;9.35;6.90;;;10.00;62.40;;;;;;2373926;56;21050;-76
2022/05/03 04:11:15;;;;;;;12.90;7.53;;;10.10;62.50;;;;;;2374459;56;21110;-76
2022/05/03 04:13:42;;;;;;;13.15;7.20;;;10.10;62.40;;;;;;2625782;52;21043;-75
2022/05/03 04:16:10;;;;;;;13.57;7.80;;;10.10;62.60;;;;;;2373704;56;21251;-74
2022/05/03 04:18:46;;;;;;;17.08;8.52;;;10.10;63.00;;;;;;2374159;56;21030;-76
2022/05/03 04:21:14;;;;;;;15.98;9.45;;;10.10;63.30;;;;;;2373788;56;21047;-76
2022/05/03 04:23:42;;;;;;;11.07;7.85;;;10.20;63.40;;;;;;2626997;52;21106;-74
2022/05/03 04:26:09;;;;;;;14.25;8.45;;;10.20;63.70;;;;;;2626816;52;21027;-75
2022/05/03 04:28:36;;;;;;;13.15;8.25;;;10.20;64.10;;;;;;2626851;52;21078;-75
2022/05/03 04:31:04;;;;;;;13.73;8.05;;;10.30;64.50;;;;;;2373367;56;21023;-76
2022/05/03 04:33:31;;;;;;;13.40;8.32;;;10.30;64.70;;;;;;2373774;56;21106;-75
2022/05/03 04:35:58;;;;;;;14.77;9.80;;;10.30;64.50;;;;;;2373527;56;21130;-75
2022/05/03 04:38:26;;;;;;;12.35;8.05;;;10.40;64.20;;;;;;2636559;51;21567;-75
2022/05/03 04:40:59;;;;;;;23.45;10.70;;;10.40;64.50;;;;;;2384922;56;21527;-75
2022/05/03 04:43:26;;;;;;;14.38;7.53;;;10.40;64.60;;;;;;2385921;56;21097;-76
2022/05/03 04:45:54;;;;;;;12.07;8.48;;;10.50;64.70;;;;;;2384526;56;21077;-75
2022/05/03 04:48:21;;;;;;;14.43;8.90;;;10.50;65.10;;;;;;2606367;53;21076;-75
2022/05/03 04:50:48;;;;;;;16.45;8.80;;;10.50;65.10;;;;;;2357587;57;21111;-76
2022/05/03 04:53:16;;;;;;;15.02;8.98;;;10.60;65.30;;;;;;2357171;57;21040;-75
2022/05/03 04:55:44;;;;;;;18.12;10.00;;;10.60;65.50;;;;;;2357435;57;21008;-76
2022/05/03 04:58:12;;;;;;;16.42;9.75;;;10.70;65.40;;;;;;2607111;52;21083;-75
2022/05/03 05:00:39;;;;;;;16.37;8.20;;;10.80;65.80;;;;;;2357629;57;21049;-76
2022/05/03 05:03:07;;;;;;;13.55;9.50;;;10.80;65.40;;;;;;2357337;57;21040;-75
2022/05/03 05:05:34;;;;;;;14.52;9.57;;;10.90;65.50;;;;;;2356744;57;21024;-75
2022/05/03 05:08:06;;;;;;;11.88;7.97;;;11.00;65.80;;;;;;2357348;57;21055;-76
2022/05/03 05:10:34;;;;;;;14.02;8.18;;;11.00;65.80;;;;;;2357276;57;21013;-75
2022/05/03 05:13:02;;;;;;;11.55;8.35;;;11.10;65.50;;;;;;2355541;57;21020;-75
2022/05/03 05:15:29;;;;;;;12.60;8.65;;;11.10;66.30;;;;;;2356141;57;21102;-74
2022/05/03 05:17:58;;;;;;;15.50;9.00;;;11.10;66.20;;;;;;2606085;52;21649;-75
2022/05/03 05:20:26;;;;;;;14.85;8.40;;;11.20;66.10;;;;;;2356958;57;21036;-74
2022/05/03 05:22:53;;;;;;;15.20;9.32;;;11.30;66.50;;;;;;2356913;57;21103;-76
2022/05/03 05:25:21;;;;;;;14.55;9.40;;;11.30;66.30;;;;;;2606450;53;21034;-76
2022/05/03 05:27:48;;;;;;;15.05;9.27;;;11.40;66.30;;;;;;2354451;57;21039;-76
2022/05/03 05:30:15;;;;;;;16.80;8.93;;;11.50;65.50;;;;;;2606755;53;21606;-76
2022/05/03 05:32:43;;;;;;;14.30;9.27;;;11.50;66.10;;;;;;2607576;53;21075;-75
2022/05/03 05:35:12;;;;;;;14.77;9.18;;;11.60;65.80;;;;;;2357600;57;21083;-76
2022/05/03 05:37:39;;;;;;;13.77;9.93;;;11.60;65.60;;;;;;2357774;57;21024;-75
2022/05/03 05:40:09;;;;;;;16.52;9.07;;;11.70;66.30;;;;;;2357577;57;21123;-75
2022/05/03 05:42:36;;;;;;;17.02;10.25;;;11.80;66.30;;;;;;2357330;57;21688;-76
2022/05/03 05:45:05;;;;;;;15.30;9.38;;;11.80;66.20;;;;;;2356357;57;21222;-75
2022/05/03 05:50:10;;;;;;;15.88;9.57;;;11.90;66.30;;;;;;2354434;57;22081;-78
2022/05/03 05:55:23;;;;;;;14.75;9.32;;;12.10;66.30;;;;;;2344538;57;21001;-76
2022/05/03 05:57:51;;;;;;;16.23;10.90;;;12.10;66.30;;;;;;2367561;56;21023;-74
2022/05/03 06:00:18;;;;;;;18.85;10.65;;;12.20;65.80;;;;;;2373403;56;21142;-75
2022/05/03 06:02:46;;;;;;;19.35;10.65;;;12.20;66.50;;;;;;2374228;56;21111;-75
2022/05/03 06:05:13;;;;;;;20.30;11.00;;;12.20;66.20;;;;;;2627853;52;21042;-76
2022/05/03 06:07:41;;;;;;;17.40;11.02;;;12.30;66.40;;;;;;2374020;56;21103;-75
2022/05/03 06:10:09;;;;;;;25.05;12.07;;;12.30;67.30;;;;;;2374273;56;21446;-75
2022/05/03 06:12:37;;;;;;;15.65;10.88;;;12.30;67.10;;;;;;2374834;56;21647;-74
2022/05/03 06:15:06;;;;;;;19.05;12.37;;;12.30;67.50;;;;;;2373651;56;21040;-76
2022/05/03 06:17:33;;;;;;;15.63;10.88;;;12.30;67.70;;;;;;2373957;56;21055;-74
2022/05/03 06:20:01;;;;;;;19.02;11.82;;;12.30;67.90;;;;;;2374512;56;21117;-77
2022/05/03 06:22:28;;;;;;;16.40;9.57;;;12.30;67.60;;;;;;2373965;56;21490;-75
2022/05/03 06:24:55;;;;;;;19.30;9.35;;;12.30;66.90;;;;;;2627891;52;21031;-75
2022/05/03 06:27:23;;;;;;;18.92;11.68;;;12.40;67.00;;;;;;2627195;52;21109;-75
2022/05/03 06:29:50;;;;;;;16.77;10.55;;;12.40;67.50;;;;;;2627869;52;21137;-76
2022/05/03 06:32:17;;;;;;;18.48;12.73;;;12.40;67.80;;;;;;2373235;56;21633;-74
2022/05/03 06:34:44;;;;;;;20.40;13.15;;;12.40;68.60;;;;;;2373945;56;21506;-75
2022/05/03 06:37:17;;;;;;;22.00;12.37;;;12.40;68.20;;;;;;2373649;56;21050;-74
2022/05/03 06:39:44;;;;;;;22.15;12.02;;;12.50;68.70;;;;;;2627372;52;21134;-75
2022/05/03 06:42:12;;;;;;;19.98;12.18;;;12.50;68.80;;;;;;2374527;56;21043;-74
2022/05/03 06:44:39;;;;;;;19.87;11.80;;;12.50;68.30;;;;;;2626259;52;21582;-74
2022/05/03 06:47:08;;;;;;;19.95;12.40;;;12.50;68.50;;;;;;2374462;56;21039;-74
2022/05/03 06:49:35;;;;;;;20.33;12.00;;;12.50;69.00;;;;;;2374557;56;21031;-74
2022/05/03 06:52:03;;;;;;;19.98;11.93;;;12.60;68.90;;;;;;2374088;56;21186;-74
2022/05/03 06:54:30;;;;;;;20.12;12.93;;;12.60;69.00;;;;;;2374927;56;21031;-75
2022/05/03 06:56:57;;;;;;;22.23;12.68;;;12.70;69.00;;;;;;2374791;56;21071;-75
2022/05/03 06:59:25;;;;;;;24.77;13.65;;;12.70;68.90;;;;;;2375135;56;21030;-76
2022/05/03 07:01:52;;;;;;;22.00;12.10;;;12.70;67.70;;;;;;2374319;56;21125;-75
2022/05/03 07:04:19;;;;;;;23.55;13.82;;;12.80;68.30;;;;;;2372978;56;21046;-76
2022/05/03 07:06:46;;;;;;;23.30;13.00;;;12.80;68.20;;;;;;2373678;56;21605;-75
2022/05/03 07:09:14;;;;;;;18.45;11.60;;;12.90;68.20;;;;;;2374108;56;21050;-75
2022/05/03 07:11:41;;;;;;;20.83;11.57;;;12.90;68.00;;;;;;2627431;52;21521;-76
2022/05/03 07:14:08;;;;;;;19.50;12.15;;;12.90;68.60;;;;;;2373983;56;21082;-75
2022/05/03 07:16:35;;;;;;;22.17;11.18;;;13.00;68.60;;;;;;2373695;56;21294;-76
2022/05/03 07:24:34;;;;;;;19.83;11.48;;;13.10;67.30;;;;;;2374104;56;20987;-76
2022/05/03 07:27:01;;;;;;;19.12;11.32;;;13.10;67.50;;;;;;2626637;52;21592;-74
2022/05/03 07:29:28;;;;;;;20.17;10.88;;;13.10;66.20;;;;;;2374347;56;21075;-76
2022/05/03 07:31:55;;;;;;;21.90;11.85;;;13.20;66.80;;;;;;2374060;56;21629;-75
2022/05/03 07:34:23;;;;;;;17.10;10.57;;;13.20;67.10;;;;;;2373951;56;21106;-76
2022/05/03 07:36:50;;;;;;;17.95;10.48;;;13.30;67.50;;;;;;2373659;56;21054;-76
2022/05/03 07:39:17;;;;;;;25.10;13.27;;;13.30;67.30;;;;;;2627460;52;21034;-76
2022/05/03 07:41:46;;;;;;;21.80;11.07;;;13.30;66.80;;;;;;2627425;52;21041;-75
2022/05/03 07:44:13;;;;;;;17.42;10.27;;;13.30;66.40;;;;;;2374224;56;21158;-75
2022/05/03 07:46:40;;;;;;;21.02;11.80;;;13.40;66.70;;;;;;2373708;56;21046;-75
2022/05/03 07:49:09;;;;;;;23.75;11.55;;;13.40;67.40;;;;;;2373995;56;21043;-75
2022/05/03 07:51:36;;;;;;;20.98;10.93;;;13.40;67.20;;;;;;2374114;56;21055;-76
2022/05/03 07:54:04;;;;;;;22.05;10.75;;;13.40;67.30;;;;;;2374116;56;21074;-75
2022/05/03 07:56:31;;;;;;;17.60;11.05;;;13.40;67.10;;;;;;2373332;56;21063;-75
2022/05/03 07:58:58;;;;;;;19.95;11.80;;;13.50;67.70;;;;;;2374193;56;21608;-76
2022/05/03 08:01:25;;;;;;;18.77;11.32;;;13.50;67.90;;;;;;2373919;56;21135;-76
2022/05/03 08:03:54;;;;;;;17.45;10.75;;;13.50;68.30;;;;;;2373983;56;21097;-75
2022/05/03 08:06:23;;;;;;;22.20;10.80;;;13.50;67.10;;;;;;2373814;56;21127;-76
2022/05/03 08:08:51;;;;;;;21.67;10.73;;;13.60;67.30;;;;;;2373998;56;21122;-75
2022/05/03 08:11:18;;;;;;;17.55;9.40;;;13.60;67.30;;;;;;2627037;52;21341;-75
2022/05/03 08:13:45;;;;;;;27.60;12.15;;;13.70;67.10;;;;;;2373835;56;21035;-75
2022/05/03 08:16:20;;;;;;;17.05;9.82;;;13.70;67.20;;;;;;2373790;56;21125;-76
2022/05/03 08:18:48;;;;;;;18.87;9.68;;;13.70;67.20;;;;;;2371868;56;21059;-76
2022/05/03 08:21:16;;;;;;;16.60;8.65;;;13.70;66.70;;;;;;2373882;56;21117;-74
2022/05/03 08:23:43;;;;;;;17.08;9.50;;;13.80;66.70;;;;;;2373685;56;21134;-76
2022/05/03 08:26:11;;;;;;;22.85;10.45;;;13.90;66.70;;;;;;2371296;56;21114;-76
2022/05/03 08:28:39;;;;;;;18.12;9.30;;;13.90;66.30;;;;;;2370964;56;21055;-76
2022/05/03 08:31:07;;;;;;;17.55;10.27;;;13.80;66.10;;;;;;2372806;56;21039;-76
2022/05/03 08:33:35;;;;;;;19.77;9.48;;;13.90;65.80;;;;;;2371582;56;21918;-76
2022/05/03 08:36:04;;;;;;;14.75;8.65;;;13.90;65.90;;;;;;2373081;56;21039;-75
2022/05/03 08:44:02;;;;;;;17.37;8.13;;;13.90;65.30;;;;;;2373297;56;21078;-76
2022/05/03 08:46:31;;;;;;;23.30;9.68;;;13.90;64.60;;;;;;2372957;56;21118;-76
2022/05/03 08:49:02;;;;;;;16.58;8.35;;;13.90;65.20;;;;;;2372926;56;21051;-74
2022/05/03 08:51:31;;;;;;;15.25;7.87;;;13.80;65.20;;;;;;2626070;52;21032;-77
2022/05/03 08:54:00;;;;;;;19.77;8.45;;;13.90;65.00;;;;;;2626926;52;21044;-75
2022/05/03 08:56:30;;;;;;;23.50;9.45;;;13.90;65.10;;;;;;2372789;56;21055;-76
2022/05/03 08:58:57;;;;;;;16.45;8.07;;;13.80;65.20;;;;;;2373687;56;21136;-77
2022/05/03 09:01:24;;;;;;;18.98;7.78;;;13.80;63.70;;;;;;2373410;56;21870;-75
2022/05/03 09:03:53;;;;;;;20.55;7.68;;;13.90;63.80;;;;;;2626546;52;21529;-77
2022/05/03 09:06:20;;;;;;;16.10;7.37;;;13.90;64.00;;;;;;2626348;52;21094;-77
2022/05/03 09:08:50;;;;;;;13.38;7.32;;;13.90;64.00;;;;;;2626628;52;21082;-77
2022/05/03 09:11:19;;;;;;;15.02;7.40;;;13.90;63.90;;;;;;2373271;56;21557;-77
2022/05/03 09:13:47;;;;;;;23.50;8.77;;;14.00;64.40;;;;;;2627174;52;21106;-76
2022/05/03 09:16:16;;;;;;;15.65;7.47;;;14.00;65.00;;;;;;2373197;56;21572;-77
2022/05/03 09:18:44;;;;;;;18.23;8.13;;;14.10;65.10;;;;;;2627014;52;21612;-77
2022/05/03 09:24:21;;;;;;;17.95;7.18;;;14.40;64.00;;;;;;2318059;56;21047;-77
2022/05/03 09:26:49;;;;;;;20.27;7.70;;;14.50;63.40;;;;;;2627167;52;21153;-76
2022/05/03 09:29:16;;;;;;;12.15;6.70;;;14.70;63.10;;;;;;2373416;56;21054;-75
2022/05/03 09:31:46;;;;;;;15.18;6.22;;;14.80;62.50;;;;;;2627660;52;21054;-77
2022/05/03 09:34:25;;;;;;;11.80;6.12;;;14.80;62.50;;;;;;2373496;56;21106;-77
2022/05/03 09:36:54;;;;;;;8.43;4.62;;;14.90;61.60;;;;;;2373489;56;21047;-77
2022/05/03 09:39:23;;;;;;;14.68;4.97;;;15.00;60.70;;;;;;2373051;56;21110;-79
2022/05/03 09:42:09;;;;;;;12.75;4.60;;;15.10;59.80;;;;;;2626746;52;21034;-77
2022/05/03 09:44:50;;;;;;;8.55;3.70;;;15.10;59.10;;;;;;2373479;56;21106;-76
2022/05/03 09:47:18;;;;;;;10.20;3.97;;;15.20;58.20;;;;;;2373741;56;21038;-76
2022/05/03 09:49:45;;;;;;;8.18;3.97;;;15.20;58.10;;;;;;2373704;56;21042;-74
2022/05/03 09:52:27;;;;;;;10.68;3.47;;;15.20;57.90;;;;;;2374131;56;21115;-76
2022/05/03 09:54:59;;;;;;;10.18;4.05;;;15.20;57.20;;;;;;2373523;56;21063;-77
2022/05/03 09:57:27;;;;;;;9.65;3.58;;;15.30;57.20;;;;;;2372322;56;21597;-76
2022/05/03 09:59:55;;;;;;;8.80;3.00;;;15.40;57.00;;;;;;2626993;52;21130;-76
2022/05/03 10:02:24;;;;;;;8.07;3.50;;;15.40;56.20;;;;;;2373603;56;21050;-77
2022/05/03 10:04:52;;;;;;;10.25;3.40;;;15.50;56.30;;;;;;2373872;56;21636;-77
2022/05/03 10:07:20;;;;;;;10.23;3.22;;;15.50;56.20;;;;;;2373500;56;21039;-77
2022/05/03 10:09:49;;;;;;;8.63;3.70;;;15.60;55.50;;;;;;2373690;56;21043;-78
2022/05/03 10:12:18;;;;;;;9.65;3.95;;;15.60;55.00;;;;;;2625662;52;21094;-77
2022/05/03 10:14:47;;;;;;;8.10;3.72;;;15.60;55.10;;;;;;2372847;56;21051;-77
2022/05/03 10:22:52;;;;;;;8.65;3.50;;;15.50;54.60;;;;;;2374526;56;20983;-78
2022/05/03 10:25:29;;;;;;;8.15;3.08;;;15.60;55.10;;;;;;2627409;52;21062;-76
2022/05/03 10:27:57;;;;;;;5.35;2.80;;;15.70;54.20;;;;;;2627348;52;21058;-78
2022/05/03 10:30:28;;;;;;;6.07;2.53;;;15.70;54.20;;;;;;2372682;56;21050;-77
2022/05/03 10:33:31;;;;;;;6.95;2.35;;;15.60;53.50;;;;;;2627167;52;21094;-77
2022/05/03 10:36:00;;;;;;;4.12;2.25;;;15.60;53.70;;;;;;2373922;56;21055;-76
2022/05/03 10:38:38;;;;;;;4.43;2.15;;;15.60;53.10;;;;;;2627426;52;21541;-77
2022/05/03 10:41:08;;;;;;;4.15;2.05;;;15.50;53.10;;;;;;2627227;52;21106;-77
2022/05/03 10:43:37;;;;;;;9.52;3.45;;;15.60;53.70;;;;;;2627510;52;21574;-77
2022/05/03 10:46:12;;;;;;;11.30;2.28;;;15.60;53.90;;;;;;2373437;56;21601;-77
2022/05/03 10:48:41;;;;;;;8.20;2.40;;;15.70;53.70;;;;;;2626627;52;21162;-75
2022/05/03 10:51:10;;;;;;;4.45;2.25;;;15.80;53.60;;;;;;2372525;56;21039;-77
2022/05/03 10:53:39;;;;;;;4.43;1.80;;;15.90;53.60;;;;;;2373800;56;21059;-76
2022/05/03 10:56:18;;;;;;;7.68;3.15;;;16.10;53.20;;;;;;2373209;56;21058;-77
2022/05/03 10:59:06;;;;;;;4.57;2.30;;;16.10;52.70;;;;;;2627552;52;21106;-77
2022/05/03 11:02:06;;;;;;;11.68;2.45;;;16.10;52.30;;;;;;2373374;56;21130;-77
2022/05/03 11:04:35;;;;;;;3.20;1.75;;;16.20;52.40;;;;;;2627223;52;21054;-78
2022/05/03 11:07:03;;;;;;;9.85;2.42;;;16.20;51.90;;;;;;2371867;56;21601;-76
2022/05/03 11:09:32;;;;;;;9.13;2.35;;;16.20;51.40;;;;;;2373918;56;21067;-74
2022/05/03 11:12:06;;;;;;;6.80;2.75;;;16.20;51.10;;;;;;2626194;52;21167;-77
2022/05/03 11:14:55;;;;;;;7.47;2.40;;;16.20;51.50;;;;;;2627128;52;21062;-76
2022/05/03 11:17:22;;;;;;;6.37;2.10;;;16.20;51.40;;;;;;2627796;52;21112;-78
2022/05/03 11:19:55;;;;;;;10.90;2.20;;;16.20;50.50;;;;;;2374868;56;21062;-77
2022/05/03 11:22:25;;;;;;;6.75;2.33;;;16.20;50.20;;;;;;2375392;56;21047;-78
2022/05/03 11:24:54;;;;;;;10.25;2.75;;;16.30;50.50;;;;;;2374297;56;21090;-78
2022/05/03 11:27:22;;;;;;;7.03;2.00;;;16.40;50.80;;;;;;2627968;52;21051;-76
2022/05/03 11:29:55;;;;;;;6.65;2.22;;;16.40;50.70;;;;;;2627525;52;21075;-77
2022/05/03 11:32:30;;;;;;;5.23;2.13;;;16.50;50.90;;;;;;2626915;52;21047;-77
2022/05/03 11:35:02;;;;;;;5.70;2.35;;;16.60;50.20;;;;;;2627612;52;21034;-77
2022/05/03 11:37:29;;;;;;;4.93;2.50;;;16.70;50.40;;;;;;2627070;52;21120;-80
2022/05/03 11:40:07;;;;;;;6.25;2.50;;;16.80;50.50;;;;;;2627863;52;21050;-75
2022/05/03 11:42:39;;;;;;;11.07;2.45;;;16.80;50.00;;;;;;2627273;52;21110;-77
2022/05/03 11:45:09;;;;;;;13.95;2.65;;;16.70;49.40;;;;;;2374410;56;21031;-77
2022/05/03 11:47:39;;;;;;;9.50;2.37;;;16.60;49.20;;;;;;2627936;52;21075;-79
2022/05/03 11:50:09;;;;;;;10.45;2.78;;;16.50;48.50;;;;;;2627830;52;21601;-79
2022/05/03 11:58:09;;;;;;;8.85;2.37;;;16.40;48.80;;;;;;2375208;56;21007;-77
2022/05/03 12:00:47;;;;;;;6.30;2.35;;;16.40;49.50;;;;;;2374771;56;21545;-76
2022/05/03 12:03:15;;;;;;;8.55;2.35;;;16.50;49.30;;;;;;2374057;56;21110;-77
2022/05/03 12:05:57;;;;;;;5.15;2.33;;;16.60;49.40;;;;;;2372807;56;21060;-77
2022/05/03 12:08:25;;;;;;;10.32;2.67;;;16.70;48.40;;;;;;2626977;52;21050;-76
2022/05/03 12:10:56;;;;;;;11.50;2.97;;;16.80;48.30;;;;;;2374000;56;21130;-76
2022/05/03 12:13:30;;;;;;;11.10;2.20;;;16.80;48.30;;;;;;2374022;56;21043;-76
2022/05/03 12:16:16;;;;;;;7.37;2.28;;;16.80;48.50;;;;;;2373168;56;21055;-77
2022/05/03 12:18:48;;;;;;;8.07;2.30;;;17.00;49.30;;;;;;2627130;52;21118;-76
2022/05/03 12:21:17;;;;;;;7.95;2.22;;;17.10;48.30;;;;;;2626972;52;21042;-76
2022/05/03 12:23:47;;;;;;;8.65;2.20;;;17.30;48.20;;;;;;2626671;52;21607;-77
2022/05/03 12:26:33;;;;;;;4.68;1.95;;;17.40;47.80;;;;;;2626417;52;21206;-77
2022/05/03 12:29:01;;;;;;;6.62;2.25;;;17.40;46.80;;;;;;2374053;56;21066;-77
2022/05/03 12:31:35;;;;;;;4.90;1.92;;;17.50;46.40;;;;;;2374058;56;21031;-77
2022/05/03 12:34:07;;;;;;;4.80;2.37;;;17.50;46.00;;;;;;2373852;56;21039;-76
2022/05/03 12:36:37;;;;;;;8.15;1.85;;;17.60;46.30;;;;;;2373773;56;21115;-77
2022/05/03 12:39:16;;;;;;;9.00;2.40;;;17.70;46.40;;;;;;2373808;56;21058;-75
2022/05/03 12:41:44;;;;;;;11.93;2.60;;;17.80;45.20;;;;;;2373919;56;21098;-77
2022/05/03 12:44:13;;;;;;;3.67;2.10;;;17.70;44.90;;;;;;2375335;56;21070;-78
2022/05/03 12:46:42;;;;;;;4.57;1.90;;;17.60;45.40;;;;;;2627540;52;21099;-76
2022/05/03 12:49:13;;;;;;;12.25;2.60;;;17.70;45.90;;;;;;2373970;56;21070;-78
2022/05/03 12:51:43;;;;;;;7.72;2.08;;;17.70;44.40;;;;;;2374514;56;21582;-78
2022/05/03 12:54:11;;;;;;;4.07;1.80;;;17.70;44.40;;;;;;2375060;56;21134;-77
2022/05/03 12:59:25;;;;;;;6.78;2.47;;;17.90;44.90;;;;;;2374330;56;21022;-78
2022/05/03 13:01:55;;;;;;;6.45;2.05;;;17.90;46.00;;;;;;2374664;56;21029;-77
2022/05/03 13:04:23;;;;;;;6.87;2.20;;;18.00;45.40;;;;;;2628215;52;21050;-76
2022/05/03 13:06:52;;;;;;;6.93;2.08;;;18.00;45.70;;;;;;2373101;56;21126;-78
2022/05/03 13:09:19;;;;;;;11.23;2.28;;;18.10;45.00;;;;;;2627814;52;21051;-76
2022/05/03 13:11:47;;;;;;;7.68;2.33;;;18.20;45.00;;;;;;2374294;56;21031;-77
2022/05/03 13:14:16;;;;;;;6.40;2.40;;;18.30;44.40;;;;;;2627776;52;21142;-75
2022/05/03 13:16:45;;;;;;;5.43;1.87;;;18.40;43.70;;;;;;2373742;56;21078;-77
2022/05/03 13:19:13;;;;;;;5.95;2.03;;;18.50;44.20;;;;;;2627154;52;21062;-75
2022/05/03 13:21:42;;;;;;;5.60;1.92;;;18.50;43.00;;;;;;2374509;56;21062;-77
2022/05/03 13:24:12;;;;;;;7.90;2.25;;;18.40;42.80;;;;;;2374198;56;21058;-77
2022/05/03 13:26:40;;;;;;;7.80;1.95;;;18.40;42.00;;;;;;2627954;52;21067;-76
2022/05/03 13:29:11;;;;;;;11.80;2.05;;;18.40;42.40;;;;;;2374762;56;21071;-77
2022/05/03 13:31:39;;;;;;;6.90;1.75;;;18.40;41.70;;;;;;2627450;52;21244;-77
2022/05/03 13:34:06;;;;;;;6.12;1.98;;;18.50;42.70;;;;;;2374583;56;21094;-78
2022/05/03 13:42:10;;;;;;;6.15;2.12;;;18.60;42.70;;;;;;2316393;56;21102;-77
2022/05/03 13:44:39;;;;;;;15.63;2.50;;;18.70;43.30;;;;;;2374636;56;21075;-78
2022/05/03 13:47:08;;;;;;;9.52;2.00;;;18.80;42.30;;;;;;2627301;52;21051;-77
2022/05/03 13:49:37;;;;;;;8.68;2.00;;;18.80;42.10;;;;;;2627854;52;21050;-77
2022/05/03 13:52:05;;;;;;;10.98;2.28;;;18.80;41.20;;;;;;2627470;52;21062;-77